Larose, Louisiana
Current Conditions -  °F | °C
As of 12:50 PM on Saturday 25 Oct 2014 (Local Time) from KHUM Reporting Station
Clear Clear  
Wind Chill: 77°   Ceiling: Unl
Heat Index: 78°   Visibility: 7mi
Dew Point: 54°   Wind: 7mph
Humidity: 44%   Direction: 330°NNW
Pressure: 30.13"   Gusts: NA
Location:  29.57°N, 90.38°W
Report Text: KHUM 251750Z 33006KT 7SM SKC 25/12 A3013 RMK ATIS Q VA RY36 OO
Loading
Personal Weather Stations






























Interactive Weather Map
Tropical Storm Tracking
New forecast layout! Learn more

10-Day Weather Forecast

Advertisements
Track Severe Weather on mobile